Time;durP1;ratioP1;P1;durP2;ratioP2;P2;SDS_P1;SDS_P2;PMS_P1;PMS_P2;Temp;Humidity;BMP_temperature;BMP_pressure;BME280_temperature;BME280_humidity;BME280_pressure;Samples;Min_cycle;Max_cycle;Signal;HPM_P1;HPM_P2
2022/08/22 00:00:53;;;;;;;0.00;0.00;;;16.90;99.90;;;;;;5036667;28;20075;-73
2022/08/22 00:03:45;;;;;;;0.10;0.10;;;16.80;99.90;;;;;;5019818;28;20021;-73
2022/08/22 00:06:17;;;;;;;0.75;0.57;;;16.80;99.90;;;;;;5036401;28;20135;-73
2022/08/22 00:09:06;;;;;;;0.47;0.47;;;17.00;99.90;;;;;;5035908;28;20032;-73
2022/08/22 00:11:55;;;;;;;0.20;0.20;;;17.00;99.90;;;;;;5054124;28;20021;-74
2022/08/22 00:14:23;;;;;;;0.20;0.20;;;17.00;99.90;;;;;;5053833;28;20083;-74
2022/08/22 00:17:00;;;;;;;1.25;1.08;;;16.90;99.90;;;;;;5053699;28;20308;-73
2022/08/22 00:19:50;;;;;;;0.10;0.10;;;16.70;99.90;;;;;;5053857;28;20025;-74
2022/08/22 00:22:25;;;;;;;0.30;0.30;;;16.70;99.90;;;;;;5036119;28;20404;-73
2022/08/22 00:25:02;;;;;;;3.10;1.95;;;16.70;99.90;;;;;;5053997;28;20106;-73
2022/08/22 00:27:36;;;;;;;0.10;0.10;;;16.70;99.90;;;;;;5035769;28;20017;-73
2022/08/22 00:30:11;;;;;;;0.20;0.20;;;16.80;99.90;;;;;;5019426;28;20032;-74
2022/08/22 00:32:53;;;;;;;0.10;0.10;;;16.90;99.90;;;;;;5035639;28;20033;-74
2022/08/22 00:35:39;;;;;;;0.50;0.50;;;16.80;99.90;;;;;;5019218;28;20025;-73
2022/08/22 00:38:07;;;;;;;0.15;0.15;;;16.80;99.90;;;;;;5053548;28;20308;-74
2022/08/22 00:40:56;;;;;;;2.45;1.08;;;16.80;99.90;;;;;;5053574;28;20106;-74
2022/08/22 00:43:42;;;;;;;0.35;0.35;;;16.80;99.90;;;;;;5053156;28;20436;-73
2022/08/22 00:46:46;;;;;;;0.10;0.10;;;16.70;99.90;;;;;;5053288;28;20025;-73
2022/08/22 00:49:57;;;;;;;0.45;0.45;;;16.40;99.90;;;;;;5027371;28;20381;-73
2022/08/22 00:52:22;;;;;;;1.25;0.75;;;16.40;99.90;;;;;;4999046;28;20124;-74
2022/08/22 00:55:00;;;;;;;0.75;0.73;;;16.50;99.90;;;;;;5035220;28;20500;-72
2022/08/22 00:58:04;;;;;;;0.10;0.10;;;16.50;99.90;;;;;;5053125;28;20148;-73
2022/08/22 01:00:37;;;;;;;0.10;0.10;;;16.40;99.90;;;;;;5053107;28;20359;-73
2022/08/22 01:03:40;;;;;;;0.45;0.40;;;16.10;99.90;;;;;;5018797;28;20029;-73
2022/08/22 01:06:17;;;;;;;0.63;0.63;;;16.10;99.90;;;;;;5034855;28;20021;-73
2022/08/22 01:08:52;;;;;;;0.80;0.35;;;16.10;99.90;;;;;;5052033;28;20021;-73
2022/08/22 01:11:55;;;;;;;0.10;0.10;;;16.00;99.90;;;;;;5035079;28;20104;-73
2022/08/22 01:14:36;;;;;;;0.10;0.10;;;16.20;99.90;;;;;;5023896;28;20072;-74
2022/08/22 01:17:21;;;;;;;0.10;0.10;;;16.40;99.90;;;;;;5034864;28;20024;-74
2022/08/22 01:20:18;;;;;;;0.30;0.30;;;16.60;99.90;;;;;;5034874;28;20025;-73
2022/08/22 01:23:11;;;;;;;0.10;0.10;;;16.60;99.90;;;;;;5035016;28;20032;-73
2022/08/22 01:26:21;;;;;;;0.40;0.40;;;16.40;99.90;;;;;;5034619;28;20032;-73
2022/08/22 01:29:08;;;;;;;0.75;0.65;;;16.30;99.90;;;;;;5052492;28;20059;-73
2022/08/22 01:31:53;;;;;;;1.17;0.57;;;16.00;99.90;;;;;;5052429;28;20029;-74
2022/08/22 01:34:37;;;;;;;0.63;0.63;;;15.90;99.90;;;;;;5052659;28;20036;-73
2022/08/22 01:37:12;;;;;;;0.47;0.47;;;15.80;99.90;;;;;;5052368;28;20032;-73
2022/08/22 01:39:59;;;;;;;4.45;1.35;;;15.80;99.90;;;;;;5034623;28;20477;-73
2022/08/22 01:42:45;;;;;;;0.73;0.73;;;16.00;99.90;;;;;;5018366;28;20498;-74
2022/08/22 01:45:31;;;;;;;0.10;0.10;;;16.10;99.90;;;;;;5052059;28;20033;-73
2022/08/22 01:48:29;;;;;;;0.10;0.10;;;16.00;99.90;;;;;;5052544;28;20108;-74
2022/08/22 01:51:35;;;;;;;0.10;0.10;;;16.20;99.90;;;;;;5033858;28;20060;-74
2022/08/22 01:54:23;;;;;;;0.95;0.40;;;16.30;99.90;;;;;;5021690;28;20121;-73
2022/08/22 01:56:48;;;;;;;0.75;0.75;;;16.40;99.90;;;;;;5052022;28;20036;-74
2022/08/22 01:59:48;;;;;;;0.30;0.30;;;16.40;99.90;;;;;;5034293;28;20024;-74
2022/08/22 02:03:05;;;;;;;1.65;0.85;;;16.50;99.90;;;;;;5020232;28;20039;-74
2022/08/22 02:05:49;;;;;;;0.10;0.10;;;16.50;99.90;;;;;;4971181;28;20552;-73
2022/08/22 02:08:29;;;;;;;0.10;0.10;;;16.60;99.90;;;;;;4971314;28;20178;-74
2022/08/22 02:11:09;;;;;;;4.50;3.03;;;16.60;99.90;;;;;;5015667;28;20052;-74
2022/08/22 02:13:58;;;;;;;0.10;0.10;;;16.60;99.90;;;;;;5034324;28;20378;-74
2022/08/22 02:16:43;;;;;;;0.17;0.17;;;16.70;99.90;;;;;;5034412;28;20484;-73
2022/08/22 02:19:14;;;;;;;0.20;0.20;;;16.70;99.90;;;;;;5051794;28;20021;-73
2022/08/22 02:21:46;;;;;;;;;;;16.90;99.90;;;;;;5055042;28;20048;-73
2022/08/22 02:24:53;;;;;;;0.10;0.10;;;16.90;99.90;;;;;;5055889;28;19905;-73
2022/08/22 02:27:18;;;;;;;0.10;0.10;;;16.90;99.90;;;;;;5038097;28;20112;-73
2022/08/22 02:30:09;;;;;;;0.10;0.10;;;17.00;99.90;;;;;;5055777;28;20109;-74
2022/08/22 02:32:44;;;;;;;0.20;0.20;;;17.10;99.90;;;;;;5055709;28;20484;-74
2022/08/22 02:35:38;;;;;;;1.25;0.28;;;17.00;99.90;;;;;;5055771;28;20021;-73
2022/08/22 02:38:22;;;;;;;0.10;0.10;;;17.00;99.90;;;;;;5035329;28;20507;-73
2022/08/22 02:41:17;;;;;;;0.20;0.20;;;16.70;99.90;;;;;;5038063;28;20484;-73
2022/08/22 02:43:54;;;;;;;2.53;0.32;;;16.20;99.90;;;;;;5037896;28;20036;-73
2022/08/22 02:46:29;;;;;;;0.10;0.10;;;15.90;99.90;;;;;;5055540;28;20020;-73
2022/08/22 02:49:24;;;;;;;0.10;0.10;;;16.10;99.90;;;;;;5037599;28;20033;-73
2022/08/22 02:52:15;;;;;;;0.10;0.10;;;16.20;99.90;;;;;;5037778;28;20571;-74
2022/08/22 02:54:51;;;;;;;0.75;0.50;;;16.40;99.90;;;;;;5055348;28;20450;-73
2022/08/22 02:57:35;;;;;;;0.10;0.10;;;16.20;99.90;;;;;;5037568;28;20025;-72
2022/08/22 03:00:22;;;;;;;1.40;1.30;;;16.00;99.90;;;;;;5055340;28;20389;-73
2022/08/22 03:02:51;;;;;;;0.47;0.47;;;15.90;99.90;;;;;;5020813;28;20427;-73
2022/08/22 03:05:37;;;;;;;0.20;0.20;;;15.70;99.90;;;;;;5055011;28;20036;-73
2022/08/22 03:08:32;;;;;;;0.38;0.38;;;15.50;99.90;;;;;;5037224;28;20396;-73
2022/08/22 03:11:24;;;;;;;0.32;0.32;;;15.20;99.90;;;;;;5055112;28;20029;-73
2022/08/22 03:14:12;;;;;;;0.10;0.10;;;15.00;99.90;;;;;;5054893;28;20021;-74
2022/08/22 03:16:46;;;;;;;0.85;0.52;;;15.00;99.90;;;;;;5054788;28;20100;-74
2022/08/22 03:19:26;;;;;;;0.60;0.60;;;15.00;99.90;;;;;;5054817;28;20473;-73
2022/08/22 03:21:58;;;;;;;0.65;0.65;;;14.80;99.90;;;;;;5055168;28;20017;-73
2022/08/22 03:24:39;;;;;;;0.55;0.47;;;14.60;99.90;;;;;;5054730;28;20380;-73
2022/08/22 03:27:16;;;;;;;0.52;0.52;;;14.50;99.90;;;;;;5036712;28;20078;-73
2022/08/22 03:29:56;;;;;;;0.57;0.57;;;14.60;99.90;;;;;;5037057;28;20017;-73
2022/08/22 03:32:43;;;;;;;0.20;0.20;;;14.80;99.90;;;;;;5054270;28;20032;-73
2022/08/22 03:35:20;;;;;;;0.10;0.10;;;14.80;99.90;;;;;;5054466;28;20021;-74
2022/08/22 03:37:49;;;;;;;0.10;0.10;;;14.70;99.90;;;;;;5036811;28;20029;-73
2022/08/22 03:40:50;;;;;;;0.10;0.10;;;14.70;99.90;;;;;;5036768;28;20116;-73
2022/08/22 03:44:03;;;;;;;0.10;0.10;;;14.90;99.90;;;;;;5054585;28;20488;-72
2022/08/22 03:47:16;;;;;;;0.10;0.10;;;15.10;99.90;;;;;;5046957;28;20096;-73
2022/08/22 03:50:14;;;;;;;0.30;0.30;;;15.30;99.90;;;;;;5036675;28;20036;-73
2022/08/22 03:53:17;;;;;;;0.10;0.10;;;15.20;99.90;;;;;;5054207;28;20032;-73
2022/08/22 03:56:04;;;;;;;0.10;0.10;;;15.40;99.90;;;;;;5036600;28;20032;-73
2022/08/22 03:59:11;;;;;;;0.38;0.38;;;15.30;99.90;;;;;;5054555;28;20085;-73
2022/08/22 04:02:02;;;;;;;0.10;0.10;;;15.30;99.90;;;;;;5054196;28;20108;-73
2022/08/22 04:04:55;;;;;;;0.10;0.10;;;15.30;99.90;;;;;;5054223;28;20538;-73
2022/08/22 04:07:43;;;;;;;0.10;0.10;;;15.40;99.90;;;;;;5053843;28;20362;-73
2022/08/22 04:10:33;;;;;;;0.10;0.10;;;15.60;99.90;;;;;;5036215;28;20025;-73
2022/08/22 04:13:23;;;;;;;0.10;0.10;;;15.90;99.90;;;;;;5053807;28;20021;-74
2022/08/22 04:16:18;;;;;;;0.10;0.10;;;15.90;99.90;;;;;;5053812;28;20029;-73
2022/08/22 04:19:04;;;;;;;0.10;0.10;;;15.90;99.90;;;;;;5053774;28;20036;-73
2022/08/22 04:22:08;;;;;;;0.10;0.10;;;15.70;99.90;;;;;;5054282;28;20565;-73
2022/08/22 04:24:48;;;;;;;0.10;0.10;;;15.60;99.90;;;;;;5053643;28;20028;-73
2022/08/22 04:27:38;;;;;;;0.10;0.10;;;15.60;99.90;;;;;;5036317;28;20032;-74
2022/08/22 04:30:10;;;;;;;0.10;0.10;;;15.60;99.90;;;;;;5019426;28;20025;-73
2022/08/22 04:32:40;;;;;;;;;;;15.90;99.90;;;;;;5054104;28;20106;-73
2022/08/22 04:35:16;;;;;;;0.10;0.10;;;15.90;99.90;;;;;;5053428;28;19908;-73
2022/08/22 04:37:57;;;;;;;0.13;0.13;;;15.90;99.90;;;;;;5053582;28;20045;-74
2022/08/22 04:40:26;;;;;;;0.10;0.10;;;15.90;99.90;;;;;;5053716;28;20028;-73
2022/08/22 04:43:00;;;;;;;0.32;0.32;;;16.10;99.90;;;;;;5052849;28;20441;-73
2022/08/22 04:45:42;;;;;;;0.10;0.10;;;16.00;99.90;;;;;;5104656;23;20507;-74
2022/08/22 04:48:25;;;;;;;0.10;0.10;;;15.90;99.90;;;;;;5035234;28;20044;-76
2022/08/22 04:50:59;;;;;;;0.10;0.10;;;16.10;99.90;;;;;;5052912;28;20496;-75
2022/08/22 04:53:31;;;;;;;0.10;0.10;;;15.80;99.90;;;;;;5052734;28;20059;-75
2022/08/22 04:56:19;;;;;;;0.10;0.10;;;15.70;99.90;;;;;;5034921;28;20095;-75
2022/08/22 04:59:02;;;;;;;0.10;0.10;;;15.90;99.90;;;;;;5034831;28;20029;-75
2022/08/22 05:01:43;;;;;;;0.98;0.52;;;15.90;99.90;;;;;;5035133;28;20115;-75
2022/08/22 05:04:19;;;;;;;0.10;0.10;;;16.00;99.90;;;;;;5052597;28;20043;-75
2022/08/22 05:06:50;;;;;;;0.52;0.52;;;15.90;99.90;;;;;;5052548;28;20554;-75
2022/08/22 05:09:23;;;;;;;0.10;0.10;;;16.00;99.90;;;;;;5052324;28;20021;-75
2022/08/22 05:11:56;;;;;;;0.20;0.20;;;16.10;99.90;;;;;;5052468;28;20082;-75
2022/08/22 05:14:28;;;;;;;0.25;0.25;;;16.20;99.90;;;;;;5034622;28;20024;-75
2022/08/22 05:16:56;;;;;;;;;;;16.30;99.90;;;;;;5052725;28;20025;-75
2022/08/22 05:19:29;;;;;;;7.78;5.20;;;16.10;99.90;;;;;;5052252;28;19971;-75
2022/08/22 05:21:56;;;;;;;0.10;0.10;;;16.10;99.90;;;;;;5052228;28;20051;-75
2022/08/22 05:24:28;;;;;;;0.10;0.10;;;16.30;99.90;;;;;;5018195;28;20033;-75
2022/08/22 05:26:59;;;;;;;0.10;0.10;;;16.40;99.90;;;;;;5052483;28;20028;-75
2022/08/22 05:29:28;;;;;;;0.10;0.10;;;16.40;99.90;;;;;;5052126;28;20055;-75
2022/08/22 05:32:02;;;;;;;0.10;0.10;;;16.30;99.90;;;;;;5052041;28;20108;-75
2022/08/22 05:34:42;;;;;;;0.10;0.10;;;16.50;99.90;;;;;;5034140;28;20473;-75
2022/08/22 05:37:21;;;;;;;0.20;0.20;;;16.80;99.90;;;;;;5017715;28;20021;-75
2022/08/22 05:39:53;;;;;;;0.10;0.10;;;16.80;99.90;;;;;;5051947;28;20025;-75
2022/08/22 05:42:33;;;;;;;0.38;0.38;;;16.80;99.90;;;;;;5052015;28;20018;-75
2022/08/22 05:45:06;;;;;;;0.10;0.10;;;16.80;99.90;;;;;;5033909;28;20040;-75
2022/08/22 05:47:38;;;;;;;0.17;0.17;;;16.80;99.90;;;;;;5051834;28;20174;-75
2022/08/22 05:50:14;;;;;;;0.15;0.15;;;16.70;99.90;;;;;;5034124;28;20074;-74
2022/08/22 05:52:48;;;;;;;0.10;0.10;;;16.90;99.90;;;;;;5033902;28;20136;-74
2022/08/22 05:55:47;;;;;;;0.20;0.20;;;16.90;99.90;;;;;;5037201;28;20067;-74
2022/08/22 05:58:43;;;;;;;0.10;0.10;;;17.00;99.90;;;;;;5058341;28;20016;-74
2022/08/22 06:01:20;;;;;;;0.17;0.17;;;17.00;99.90;;;;;;5040700;28;20389;-74
2022/08/22 06:04:12;;;;;;;1.75;1.65;;;16.70;99.90;;;;;;5058344;28;20032;-74
2022/08/22 06:07:07;;;;;;;0.90;0.90;;;16.50;99.90;;;;;;5020549;28;20485;-75
2022/08/22 06:09:45;;;;;;;0.10;0.10;;;16.30;99.90;;;;;;5058364;28;20079;-74
2022/08/22 06:12:16;;;;;;;0.10;0.10;;;16.50;99.90;;;;;;5058126;28;20059;-74
2022/08/22 06:14:45;;;;;;;0.10;0.10;;;16.70;99.90;;;;;;5058368;28;20049;-75
2022/08/22 06:17:25;;;;;;;0.10;0.10;;;16.80;99.90;;;;;;5058198;28;20033;-75
2022/08/22 06:19:52;;;;;;;0.10;0.10;;;16.80;99.90;;;;;;5058295;28;20025;-75
2022/08/22 06:22:23;;;;;;;0.15;0.15;;;16.80;99.90;;;;;;5058329;28;20021;-75
2022/08/22 06:24:51;;;;;;;0.10;0.10;;;16.80;99.90;;;;;;5058258;28;20066;-75
2022/08/22 06:27:23;;;;;;;0.47;0.47;;;16.90;99.90;;;;;;5058200;28;20286;-75
2022/08/22 06:29:55;;;;;;;0.10;0.10;;;17.00;99.90;;;;;;5023712;28;20024;-75
2022/08/22 06:32:25;;;;;;;0.10;0.10;;;17.20;99.90;;;;;;5058167;28;20384;-74
2022/08/22 06:34:53;;;;;;;0.57;0.57;;;17.40;99.90;;;;;;5056539;28;20057;-75
2022/08/22 06:37:32;;;;;;;0.10;0.10;;;17.50;99.90;;;;;;5039288;28;20032;-75
2022/08/22 06:40:01;;;;;;;0.10;0.10;;;17.70;99.90;;;;;;5058223;28;20025;-75
2022/08/22 06:42:31;;;;;;;0.10;0.10;;;17.90;99.90;;;;;;5040160;28;20250;-75
2022/08/22 06:45:04;;;;;;;0.10;0.10;;;18.30;99.90;;;;;;5040122;28;20503;-75
2022/08/22 06:47:35;;;;;;;0.10;0.10;;;18.40;99.90;;;;;;5057558;28;20033;-75
2022/08/22 06:50:11;;;;;;;0.10;0.10;;;18.40;99.90;;;;;;5040551;28;20024;-75
2022/08/22 06:52:54;;;;;;;1.02;1.02;;;18.60;99.90;;;;;;5039921;28;20095;-75
2022/08/22 06:55:22;;;;;;;0.05;0.05;;;18.80;99.90;;;;;;5057662;28;20508;-75
2022/08/22 06:58:02;;;;;;;0.00;0.00;;;18.90;99.90;;;;;;5057950;28;20029;-75
2022/08/22 07:00:33;;;;;;;0.57;0.57;;;19.10;99.90;;;;;;5058026;28;20096;-75
2022/08/22 07:03:32;;;;;;;0.10;0.10;;;19.10;99.90;;;;;;5058034;28;20024;-75
2022/08/22 07:05:58;;;;;;;0.20;0.20;;;19.10;99.90;;;;;;5056774;28;20392;-74
2022/08/22 07:08:27;;;;;;;0.20;0.20;;;19.10;99.90;;;;;;5054442;28;20036;-74
2022/08/22 07:11:20;;;;;;;0.10;0.10;;;19.20;99.90;;;;;;5054815;28;20407;-75
2022/08/22 07:14:13;;;;;;;0.10;0.10;;;19.20;99.90;;;;;;5054787;28;20064;-74
2022/08/22 07:16:48;;;;;;;0.10;0.10;;;19.00;99.90;;;;;;5052828;28;20033;-74
2022/08/22 07:19:30;;;;;;;0.10;0.10;;;19.00;99.90;;;;;;5036573;28;20028;-74
2022/08/22 07:21:58;;;;;;;0.00;0.00;;;19.20;99.90;;;;;;5054582;28;20025;-74
2022/08/22 07:24:28;;;;;;;0.00;0.00;;;19.30;99.90;;;;;;5036690;28;20029;-75
2022/08/22 07:27:36;;;;;;;0.10;0.10;;;19.30;99.90;;;;;;5036599;28;20036;-75
2022/08/22 07:30:10;;;;;;;0.00;0.00;;;19.30;99.90;;;;;;5050964;28;20044;-73
2022/08/22 07:32:50;;;;;;;0.50;0.50;;;19.20;99.90;;;;;;5050372;28;20424;-75
2022/08/22 07:35:22;;;;;;;0.10;0.10;;;19.30;99.90;;;;;;5050869;28;20446;-74
2022/08/22 07:37:50;;;;;;;0.25;0.25;;;19.50;99.90;;;;;;5050544;28;20049;-74
2022/08/22 07:40:34;;;;;;;0.00;0.00;;;19.80;99.90;;;;;;5050612;28;20025;-75
2022/08/22 07:43:22;;;;;;;0.00;0.00;;;19.90;99.90;;;;;;5030792;28;20134;-75
2022/08/22 07:45:53;;;;;;;0.10;0.10;;;20.00;99.90;;;;;;5030784;28;20110;-74
2022/08/22 07:48:22;;;;;;;;;;;20.10;99.90;;;;;;5029745;28;20056;-74
2022/08/22 07:51:06;;;;;;;0.68;0.68;;;20.20;99.90;;;;;;5030494;28;19909;-74
2022/08/22 07:53:32;;;;;;;0.52;0.52;;;20.40;99.90;;;;;;5012862;28;20312;-74
2022/08/22 07:56:00;;;;;;;0.20;0.20;;;20.70;99.90;;;;;;5033497;28;20545;-74
2022/08/22 07:58:30;;;;;;;0.00;0.00;;;20.90;99.90;;;;;;5050547;28;20033;-74
2022/08/22 08:00:57;;;;;;;0.47;0.47;;;21.00;99.90;;;;;;5050795;28;20388;-74
2022/08/22 08:03:26;;;;;;;0.05;0.05;;;21.30;99.90;;;;;;5032123;28;20025;-74
2022/08/22 08:05:52;;;;;;;0.10;0.10;;;21.30;99.90;;;;;;5050267;28;20025;-74
2022/08/22 08:08:29;;;;;;;0.00;0.00;;;21.50;99.90;;;;;;5050036;28;20029;-74
2022/08/22 08:10:58;;;;;;;0.00;0.00;;;21.50;99.90;;;;;;5032264;28;20132;-74
2022/08/22 08:13:41;;;;;;;0.10;0.10;;;21.70;99.90;;;;;;5049820;28;20378;-74
2022/08/22 08:16:15;;;;;;;0.00;0.00;;;22.00;99.90;;;;;;5050377;28;20388;-74
2022/08/22 08:18:42;;;;;;;0.30;0.30;;;22.10;99.90;;;;;;5048794;28;20054;-74
2022/08/22 08:21:13;;;;;;;0.10;0.10;;;21.90;99.90;;;;;;5032058;28;20079;-75
2022/08/22 08:23:43;;;;;;;;;;;21.60;99.90;;;;;;5050338;28;20029;-74
2022/08/22 08:26:14;;;;;;;0.00;0.00;;;21.50;99.90;;;;;;5049920;28;19908;-74
2022/08/22 08:28:45;;;;;;;0.10;0.10;;;21.80;99.90;;;;;;5035271;28;20813;-75
2022/08/22 08:31:41;;;;;;;0.00;0.00;;;22.30;99.90;;;;;;5029778;28;20065;-75
2022/08/22 08:34:21;;;;;;;0.10;0.10;;;22.40;99.90;;;;;;5013336;28;20053;-74
2022/08/22 08:36:51;;;;;;;1.30;0.90;;;22.30;99.90;;;;;;5012095;28;20403;-73
2022/08/22 08:39:26;;;;;;;0.10;0.10;;;22.20;99.90;;;;;;4995407;28;20033;-73
2022/08/22 08:42:30;;;;;;;0.00;0.00;;;22.50;99.90;;;;;;5029877;28;20037;-73
2022/08/22 08:45:21;;;;;;;0.10;0.10;;;22.50;99.90;;;;;;5029962;28;20103;-74
2022/08/22 08:48:08;;;;;;;0.00;0.00;;;22.80;98.30;;;;;;5030832;28;20564;-74
2022/08/22 08:50:49;;;;;;;0.52;0.52;;;23.10;96.20;;;;;;5031312;28;20685;-75
2022/08/22 08:53:24;;;;;;;0.00;0.00;;;23.20;94.30;;;;;;5044529;28;20099;-74
2022/08/22 08:55:58;;;;;;;0.10;0.10;;;23.10;95.10;;;;;;5014717;28;20032;-75
2022/08/22 08:58:37;;;;;;;0.55;0.52;;;23.60;93.60;;;;;;5049108;28;20392;-75
2022/08/22 09:01:36;;;;;;;2.28;0.85;;;24.10;89.60;;;;;;5045085;28;20025;-75
2022/08/22 09:04:30;;;;;;;0.00;0.00;;;24.40;84.90;;;;;;5011295;28;20034;-74
2022/08/22 09:07:07;;;;;;;0.00;0.00;;;24.70;82.80;;;;;;5029231;28;20064;-74
2022/08/22 09:09:53;;;;;;;0.00;0.00;;;24.80;83.60;;;;;;5039547;28;20036;-74
2022/08/22 09:12:53;;;;;;;0.08;0.08;;;25.10;80.40;;;;;;5049127;28;20028;-74
2022/08/22 09:15:37;;;;;;;0.17;0.17;;;25.40;80.60;;;;;;5049181;28;20104;-75
2022/08/22 09:18:40;;;;;;;0.57;0.57;;;25.70;74.90;;;;;;5002739;28;20029;-74
2022/08/22 09:21:39;;;;;;;0.00;0.00;;;25.70;74.10;;;;;;5039046;28;20037;-74
2022/08/22 09:24:43;;;;;;;0.17;0.17;;;25.80;72.60;;;;;;5014045;28;20029;-74
2022/08/22 09:27:30;;;;;;;0.00;0.00;;;25.90;71.30;;;;;;5036478;28;20079;-74
2022/08/22 09:30:04;;;;;;;0.22;0.22;;;26.20;67.10;;;;;;5041622;28;20044;-74
2022/08/22 09:32:33;;;;;;;0.00;0.00;;;26.40;67.50;;;;;;5021910;28;20516;-74
2022/08/22 09:35:19;;;;;;;0.22;0.22;;;26.60;59.10;;;;;;5029629;28;20021;-74
2022/08/22 09:38:06;;;;;;;0.00;0.00;;;27.00;58.10;;;;;;5028952;28;20033;-73
2022/08/22 09:40:43;;;;;;;0.13;0.13;;;26.90;57.20;;;;;;5028647;28;20057;-74
2022/08/22 09:43:19;;;;;;;0.00;0.00;;;26.10;60.70;;;;;;5029809;28;20022;-74
2022/08/22 09:46:03;;;;;;;0.00;0.00;;;26.30;60.10;;;;;;4994435;28;20064;-74
2022/08/22 09:48:37;;;;;;;1.55;0.43;;;26.70;59.60;;;;;;5028698;28;20033;-74
2022/08/22 09:51:44;;;;;;;0.10;0.10;;;26.80;60.30;;;;;;5010812;28;20040;-74
2022/08/22 09:54:31;;;;;;;0.20;0.20;;;27.40;58.70;;;;;;4931441;29;20059;-74
2022/08/22 09:57:46;;;;;;;0.00;0.00;;;27.40;58.10;;;;;;5007517;28;20033;-74
2022/08/22 10:00:43;;;;;;;0.80;0.55;;;27.20;57.70;;;;;;4956879;28;20053;-74
2022/08/22 10:03:26;;;;;;;0.00;0.00;;;27.10;58.50;;;;;;5012571;28;20500;-73
2022/08/22 10:06:01;;;;;;;0.00;0.00;;;26.60;59.20;;;;;;5010312;28;20057;-74
2022/08/22 10:09:20;;;;;;;0.30;0.30;;;26.30;60.00;;;;;;5028422;28;20029;-74
2022/08/22 10:11:53;;;;;;;0.00;0.00;;;26.70;59.60;;;;;;5013396;28;20110;-74
2022/08/22 10:14:36;;;;;;;0.65;0.50;;;27.60;57.50;;;;;;5028410;28;20496;-74
2022/08/22 10:17:20;;;;;;;1.02;0.45;;;27.10;57.10;;;;;;5028325;28;20029;-75
2022/08/22 10:19:48;;;;;;;2.28;1.08;;;26.60;58.20;;;;;;5027976;28;20508;-74
2022/08/22 10:22:18;;;;;;;0.00;0.00;;;26.20;61.50;;;;;;5010791;28;20026;-75
2022/08/22 10:24:50;;;;;;;0.28;0.28;;;26.80;59.70;;;;;;5028342;28;20030;-75
2022/08/22 10:27:29;;;;;;;0.00;0.00;;;26.70;58.40;;;;;;5010156;28;20030;-75
2022/08/22 10:30:19;;;;;;;0.03;0.03;;;26.00;59.50;;;;;;5028347;28;20036;-74
2022/08/22 10:33:13;;;;;;;4.03;1.00;;;25.50;59.10;;;;;;5028757;28;20025;-74
2022/08/22 10:35:50;;;;;;;0.00;0.00;;;25.20;58.70;;;;;;5028091;28;20031;-74
2022/08/22 10:38:24;;;;;;;0.00;0.00;;;24.90;58.50;;;;;;5028236;28;20034;-73
2022/08/22 10:41:09;;;;;;;0.15;0.15;;;25.60;57.90;;;;;;5028046;28;20032;-73
2022/08/22 10:43:56;;;;;;;0.03;0.03;;;26.70;56.90;;;;;;5031729;28;20211;-73
2022/08/22 10:46:33;;;;;;;0.10;0.10;;;27.80;54.00;;;;;;5013652;28;20068;-74
2022/08/22 10:48:59;;;;;;;2.10;1.80;;;27.80;54.10;;;;;;5031694;28;20086;-74
2022/08/22 10:51:35;;;;;;;0.88;0.57;;;27.60;55.70;;;;;;5013526;28;20041;-73
2022/08/22 10:54:28;;;;;;;0.28;0.28;;;27.60;55.70;;;;;;5031675;28;20029;-74
2022/08/22 10:57:12;;;;;;;0.10;0.10;;;26.80;55.80;;;;;;5031592;28;20029;-73
2022/08/22 10:59:44;;;;;;;0.00;0.00;;;26.00;56.20;;;;;;5031079;28;20060;-73
2022/08/22 11:02:44;;;;;;;0.47;0.28;;;25.80;58.40;;;;;;5029836;28;20033;-74
2022/08/22 11:05:34;;;;;;;0.00;0.00;;;26.80;56.30;;;;;;5012523;28;20049;-73
2022/08/22 11:08:03;;;;;;;0.30;0.30;;;27.30;54.80;;;;;;5030793;28;20083;-74
2022/08/22 11:10:31;;;;;;;0.63;0.63;;;28.20;54.60;;;;;;5031952;28;20366;-74
2022/08/22 11:13:25;;;;;;;0.35;0.35;;;28.60;53.20;;;;;;5031522;28;20426;-73
2022/08/22 11:16:01;;;;;;;0.10;0.10;;;29.10;52.20;;;;;;5021805;28;20040;-74
2022/08/22 11:18:26;;;;;;;0.55;0.55;;;29.20;51.70;;;;;;5013367;28;20025;-74
2022/08/22 11:21:20;;;;;;;1.45;0.60;;;29.60;50.30;;;;;;5031430;28;20086;-74
2022/08/22 11:23:54;;;;;;;0.63;0.50;;;30.10;49.60;;;;;;5031232;28;20392;-74
2022/08/22 11:26:38;;;;;;;0.60;0.50;;;30.30;48.60;;;;;;5013175;28;20082;-73
2022/08/22 11:29:25;;;;;;;0.70;0.32;;;30.30;48.50;;;;;;5031426;28;20103;-73
2022/08/22 11:31:54;;;;;;;0.00;0.00;;;29.90;48.00;;;;;;5011850;28;20562;-73
2022/08/22 11:34:54;;;;;;;0.00;0.00;;;30.30;47.40;;;;;;5013338;28;20048;-75
2022/08/22 11:37:44;;;;;;;0.15;0.05;;;30.40;47.00;;;;;;4996628;28;20026;-74
2022/08/22 11:40:45;;;;;;;0.30;0.30;;;30.60;47.00;;;;;;4996629;28;20496;-74
2022/08/22 11:43:48;;;;;;;0.00;0.00;;;31.10;46.30;;;;;;5030825;28;20033;-74
2022/08/22 11:46:39;;;;;;;0.00;0.00;;;30.80;44.90;;;;;;5012883;28;20064;-74
2022/08/22 11:49:19;;;;;;;0.75;0.63;;;30.50;45.80;;;;;;5030672;28;20021;-74
2022/08/22 11:52:12;;;;;;;0.30;0.30;;;30.50;44.90;;;;;;5030474;28;20493;-74
2022/08/22 11:54:50;;;;;;;1.00;0.20;;;30.30;44.30;;;;;;5012750;28;20044;-74
2022/08/22 11:57:31;;;;;;;0.70;0.35;;;28.70;46.20;;;;;;5030475;28;20025;-74
2022/08/22 12:00:19;;;;;;;0.15;0.15;;;28.40;45.60;;;;;;5030633;28;20464;-74
2022/08/22 12:02:59;;;;;;;0.25;0.22;;;28.80;45.40;;;;;;5030404;28;20065;-74
2022/08/22 12:05:32;;;;;;;0.10;0.00;;;29.50;45.10;;;;;;5012446;28;20033;-74
2022/08/22 12:08:11;;;;;;;0.00;0.00;;;29.40;44.70;;;;;;5030606;28;20029;-74
2022/08/22 12:10:54;;;;;;;0.00;0.00;;;29.80;44.50;;;;;;5030776;28;20041;-73
2022/08/22 12:13:38;;;;;;;0.55;0.13;;;29.90;43.30;;;;;;5030112;28;20033;-74
2022/08/22 12:16:26;;;;;;;0.00;0.00;;;29.00;43.70;;;;;;5030609;28;20104;-74
2022/08/22 12:19:11;;;;;;;0.10;0.10;;;28.60;45.50;;;;;;5029928;28;20099;-74
2022/08/22 12:21:58;;;;;;;0.00;0.00;;;28.00;46.70;;;;;;5012923;28;20029;-74
2022/08/22 12:24:32;;;;;;;0.32;0.32;;;27.60;46.00;;;;;;5030659;28;20036;-74
2022/08/22 12:26:58;;;;;;;0.73;0.73;;;27.40;47.00;;;;;;5030072;28;20086;-74
2022/08/22 12:29:42;;;;;;;0.80;0.75;;;27.40;46.70;;;;;;5029828;28;20041;-74
2022/08/22 12:32:27;;;;;;;0.52;0.22;;;27.80;46.90;;;;;;5011771;28;20112;-74
2022/08/22 12:35:14;;;;;;;0.10;0.10;;;28.10;47.90;;;;;;5029831;28;20036;-74
2022/08/22 12:37:58;;;;;;;0.80;0.50;;;28.50;47.70;;;;;;5029541;28;20481;-74
2022/08/22 12:40:39;;;;;;;0.00;0.00;;;28.10;47.80;;;;;;4995790;28;20075;-74
2022/08/22 12:43:14;;;;;;;0.98;0.88;;;28.00;48.80;;;;;;5029614;28;20033;-74
2022/08/22 12:46:05;;;;;;;0.00;0.00;;;27.90;49.40;;;;;;5030162;28;20042;-74
2022/08/22 12:48:46;;;;;;;0.10;0.10;;;28.00;50.30;;;;;;5029204;28;20547;-74
2022/08/22 12:51:27;;;;;;;0.20;0.20;;;27.70;50.20;;;;;;5029602;28;20397;-74
2022/08/22 12:54:18;;;;;;;2.90;1.83;;;27.10;50.80;;;;;;5029785;28;20033;-74
2022/08/22 12:57:10;;;;;;;0.00;0.00;;;26.60;51.80;;;;;;5029557;28;20518;-74
2022/08/22 12:59:40;;;;;;;0.00;0.00;;;27.00;51.10;;;;;;5011572;28;20063;-74
2022/08/22 13:02:33;;;;;;;0.20;0.20;;;26.90;50.10;;;;;;5029909;28;20033;-74
2022/08/22 13:05:22;;;;;;;0.98;0.85;;;26.90;50.60;;;;;;5025490;28;20504;-74
2022/08/22 13:07:55;;;;;;;0.45;0.30;;;26.60;51.80;;;;;;5029144;28;20034;-74
2022/08/22 13:10:41;;;;;;;1.15;0.70;;;26.90;52.30;;;;;;5029308;28;20037;-74
2022/08/22 13:13:10;;;;;;;2.42;0.10;;;26.50;51.40;;;;;;5029194;28;20037;-74
2022/08/22 13:15:44;;;;;;;1.67;0.45;;;26.40;52.70;;;;;;5011168;28;20029;-74
2022/08/22 13:18:24;;;;;;;0.10;0.10;;;26.40;52.40;;;;;;5028875;28;20018;-74
2022/08/22 13:20:52;;;;;;;0.17;0.17;;;26.50;51.70;;;;;;5029004;28;20071;-74
2022/08/22 13:23:18;;;;;;;0.00;0.00;;;26.50;50.60;;;;;;5011009;28;20048;-74
2022/08/22 13:26:22;;;;;;;0.10;0.10;;;26.60;50.40;;;;;;5028830;28;20037;-73
2022/08/22 13:28:55;;;;;;;0.10;0.10;;;26.40;50.10;;;;;;5000507;28;20073;-73
2022/08/22 13:31:35;;;;;;;2.28;0.45;;;26.40;49.70;;;;;;5029074;28;20033;-75
2022/08/22 13:34:06;;;;;;;0.17;0.10;;;26.40;49.10;;;;;;5010700;28;20033;-74
2022/08/22 13:36:44;;;;;;;0.00;0.00;;;26.50;49.50;;;;;;5028689;28;20389;-73
2022/08/22 13:39:16;;;;;;;0.20;0.20;;;26.70;48.70;;;;;;5028601;28;20356;-74
2022/08/22 13:41:48;;;;;;;;;;;26.80;48.30;;;;;;5029434;28;20437;-74
2022/08/22 13:44:35;;;;;;;0.00;0.00;;;26.80;48.00;;;;;;5042623;28;19913;-74
2022/08/22 13:47:08;;;;;;;0.00;0.00;;;26.60;48.10;;;;;;5030591;28;20068;-74
2022/08/22 13:49:39;;;;;;;0.20;0.20;;;26.40;48.60;;;;;;5030603;28;20498;-74
2022/08/22 13:52:13;;;;;;;0.10;0.10;;;26.50;47.60;;;;;;5048325;28;20506;-74
2022/08/22 13:54:58;;;;;;;0.17;0.17;;;26.40;47.30;;;;;;5048157;28;20037;-75
2022/08/22 13:57:31;;;;;;;0.10;0.10;;;26.30;46.80;;;;;;5048372;28;20511;-75
2022/08/22 14:00:08;;;;;;;0.00;0.00;;;26.20;47.10;;;;;;5030414;28;20365;-75
2022/08/22 14:02:45;;;;;;;0.85;0.40;;;26.10;47.80;;;;;;5048706;28;20092;-75